Time;durP1;ratioP1;P1;durP2;ratioP2;P2;SDS_P1;SDS_P2;PMS_P1;PMS_P2;Temp;Humidity;BMP_temperature;BMP_pressure;BME280_temperature;BME280_humidity;BME280_pressure;Samples;Min_cycle;Max_cycle;Signal;HPM_P1;HPM_P2
2022/03/05 00:21:35;;;;;;;16.65;12.90;;;;;;;;;;5177581;27;20093;-67
2022/03/05 00:24:01;;;;;;;18.25;13.80;;;;;;;;;;5179386;27;20175;-69
2022/03/05 00:26:28;;;;;;;15.65;12.88;;;;;;;;;;5179384;27;20077;-69
2022/03/05 00:28:54;;;;;;;19.27;12.85;;;;;;;;;;5179622;27;20085;-73
2022/03/05 00:31:20;;;;;;;15.77;12.35;;;;;;;;;;5179250;27;20100;-73
2022/03/05 00:33:46;;;;;;;17.62;12.98;;;;;;;;;;5179569;27;20077;-69
2022/03/05 00:36:12;;;;;;;14.90;11.70;;;;;;;;;;5179291;27;20086;-69
2022/03/05 00:38:38;;;;;;;13.40;11.88;;;;;;;;;;5179385;27;20109;-72
2022/03/05 00:41:04;;;;;;;15.50;11.95;;;;;;;;;;5178880;27;20097;-73
2022/03/05 00:43:30;;;;;;;14.18;12.37;;;;;;;;;;5179870;27;20191;-72
2022/03/05 00:45:56;;;;;;;14.30;11.82;;;;;;;;;;5179096;27;20150;-73
2022/03/05 00:48:23;;;;;;;15.73;12.20;;;;;;;;;;5160728;27;20116;-72
2022/03/05 00:50:49;;;;;;;14.55;11.52;;;;;;;;;;5179194;27;20086;-73
2022/03/05 00:53:17;;;;;;;15.48;12.27;;;;;;;;;;5160462;27;20711;-73
2022/03/05 00:55:44;;;;;;;17.23;11.77;;;;;;;;;;5179402;27;20469;-73
2022/03/05 00:58:10;;;;;;;13.70;11.63;;;;;;;;;;5179496;27;20101;-72
2022/03/05 01:00:36;;;;;;;13.73;11.63;;;;;;;;;;5179233;27;20082;-72
2022/03/05 01:03:02;;;;;;;13.88;11.40;;;;;;;;;;5179601;27;20543;-72
2022/03/05 01:05:28;;;;;;;12.52;11.02;;;;;;;;;;5179806;27;20089;-72
2022/03/05 01:07:55;;;;;;;15.07;11.05;;;;;;;;;;5179516;27;20190;-72
2022/03/05 01:10:21;;;;;;;14.70;11.48;;;;;;;;;;5160292;27;20101;-74
2022/03/05 01:12:47;;;;;;;15.05;12.25;;;;;;;;;;5179166;27;20090;-74
2022/03/05 01:15:13;;;;;;;14.38;12.43;;;;;;;;;;5179627;27;20173;-74
2022/03/05 01:17:39;;;;;;;13.07;11.20;;;;;;;;;;5179357;27;20093;-73
2022/03/05 01:20:05;;;;;;;13.52;11.38;;;;;;;;;;5179479;27;20496;-73
2022/03/05 01:22:31;;;;;;;15.25;12.37;;;;;;;;;;5180384;27;20074;-73
2022/03/05 01:24:57;;;;;;;14.13;12.02;;;;;;;;;;5180840;27;20093;-73
2022/03/05 01:27:23;;;;;;;13.05;11.70;;;;;;;;;;5180538;27;20195;-73
2022/03/05 01:29:50;;;;;;;16.48;12.20;;;;;;;;;;5180519;27;20136;-73
2022/03/05 01:32:16;;;;;;;16.02;11.93;;;;;;;;;;5180449;27;20124;-72
2022/03/05 01:34:42;;;;;;;13.85;12.30;;;;;;;;;;5180608;27;20176;-73
2022/03/05 01:37:08;;;;;;;15.73;12.10;;;;;;;;;;5180522;27;20113;-73
2022/03/05 01:39:34;;;;;;;14.68;12.18;;;;;;;;;;5180425;27;20090;-74
2022/03/05 01:42:01;;;;;;;15.82;12.82;;;;;;;;;;5180582;27;20509;-73
2022/03/05 01:44:27;;;;;;;14.32;11.77;;;;;;;;;;5161377;27;20489;-74
2022/03/05 01:46:53;;;;;;;14.70;12.70;;;;;;;;;;5161254;27;20086;-74
2022/03/05 01:49:19;;;;;;;16.40;12.48;;;;;;;;;;5180674;27;20175;-73
2022/03/05 01:51:46;;;;;;;19.95;12.60;;;;;;;;;;5180299;27;20077;-73
2022/03/05 01:54:12;;;;;;;15.00;12.45;;;;;;;;;;5180322;27;20074;-73
2022/03/05 01:56:39;;;;;;;15.23;13.30;;;;;;;;;;5180407;27;20076;-72
2022/03/05 01:59:06;;;;;;;16.77;12.70;;;;;;;;;;5180359;27;20087;-72
2022/03/05 02:01:32;;;;;;;15.80;13.10;;;;;;;;;;5161467;27;20085;-72
2022/03/05 02:04:00;;;;;;;17.58;13.40;;;;;;;;;;5180225;27;20109;-72
2022/03/05 02:06:26;;;;;;;16.52;13.18;;;;;;;;;;5180199;27;20137;-72
2022/03/05 02:08:52;;;;;;;15.98;12.95;;;;;;;;;;5180381;27;20109;-72
2022/03/05 02:11:18;;;;;;;16.73;13.15;;;;;;;;;;5161008;27;20073;-72
2022/03/05 02:13:44;;;;;;;18.45;14.02;;;;;;;;;;5180466;27;20081;-72
2022/03/05 02:16:10;;;;;;;16.37;12.48;;;;;;;;;;5180254;27;20191;-73
2022/03/05 02:18:36;;;;;;;14.90;11.98;;;;;;;;;;5180082;27;20070;-73
2022/03/05 02:21:03;;;;;;;14.68;12.55;;;;;;;;;;5179916;27;20398;-73
2022/03/05 02:23:29;;;;;;;14.98;12.45;;;;;;;;;;5180357;27;20085;-72
2022/03/05 02:25:57;;;;;;;14.60;12.20;;;;;;;;;;5180527;27;20065;-73
2022/03/05 02:28:25;;;;;;;15.57;13.23;;;;;;;;;;5160960;27;20055;-72
2022/03/05 02:30:52;;;;;;;14.93;12.10;;;;;;;;;;5179764;27;20093;-72
2022/03/05 02:33:18;;;;;;;16.33;12.77;;;;;;;;;;5179589;27;20507;-73
2022/03/05 02:35:45;;;;;;;16.27;13.25;;;;;;;;;;5161111;27;20092;-71
2022/03/05 02:38:15;;;;;;;15.23;12.15;;;;;;;;;;5179939;27;20409;-72
2022/03/05 02:40:43;;;;;;;15.43;13.05;;;;;;;;;;5160710;27;20067;-73
2022/03/05 02:43:09;;;;;;;16.45;13.00;;;;;;;;;;5179810;27;20104;-73
2022/03/05 02:45:36;;;;;;;16.52;12.88;;;;;;;;;;5180064;27;20066;-72
2022/03/05 02:48:04;;;;;;;15.25;12.95;;;;;;;;;;5179798;27;20074;-74
2022/03/05 02:50:30;;;;;;;16.52;13.43;;;;;;;;;;5179998;27;20517;-74
2022/03/05 02:52:56;;;;;;;16.75;13.55;;;;;;;;;;5179707;27;20082;-69
2022/03/05 02:55:22;;;;;;;21.80;13.15;;;;;;;;;;5160949;27;20070;-73
2022/03/05 02:57:48;;;;;;;17.85;14.40;;;;;;;;;;5180542;27;20098;-79
2022/03/05 03:00:15;;;;;;;18.02;13.75;;;;;;;;;;5181455;27;20082;-78
2022/03/05 03:02:44;;;;;;;18.48;14.43;;;;;;;;;;5180786;27;20072;-78
2022/03/05 03:05:11;;;;;;;21.33;15.02;;;;;;;;;;5180955;27;20065;-80
2022/03/05 03:07:37;;;;;;;23.20;16.70;;;;;;;;;;5180023;27;20483;-72
2022/03/05 03:10:05;;;;;;;21.40;15.18;;;;;;;;;;5180054;27;20413;-74
2022/03/05 03:12:31;;;;;;;18.50;15.68;;;;;;;;;;5179997;27;20077;-72
2022/03/05 03:14:57;;;;;;;22.27;16.42;;;;;;;;;;5179737;27;20096;-75
2022/03/05 03:17:23;;;;;;;19.77;14.98;;;;;;;;;;5179707;27;20090;-76
2022/03/05 03:19:49;;;;;;;19.02;15.75;;;;;;;;;;5179743;27;20517;-75
2022/03/05 03:22:16;;;;;;;19.90;16.20;;;;;;;;;;5179595;27;20187;-74
2022/03/05 03:24:42;;;;;;;17.90;14.82;;;;;;;;;;5180103;27;20082;-76
2022/03/05 03:27:08;;;;;;;20.02;15.43;;;;;;;;;;5160411;27;20181;-72
2022/03/05 03:29:35;;;;;;;20.23;16.25;;;;;;;;;;5160356;27;20481;-73
2022/03/05 03:32:01;;;;;;;22.27;18.15;;;;;;;;;;5179875;27;20062;-75
2022/03/05 03:34:27;;;;;;;19.75;15.63;;;;;;;;;;5179472;27;20076;-75
2022/03/05 03:36:53;;;;;;;20.08;16.55;;;;;;;;;;5179866;27;20161;-75
2022/03/05 03:39:19;;;;;;;20.00;16.85;;;;;;;;;;5179713;27;20090;-77
2022/03/05 03:41:46;;;;;;;21.87;16.58;;;;;;;;;;5179725;27;20069;-74
2022/03/05 03:44:11;;;;;;;23.33;17.83;;;;;;;;;;5179383;27;20472;-73
2022/03/05 03:46:37;;;;;;;19.12;16.25;;;;;;;;;;5161498;27;20157;-77
2022/03/05 03:49:04;;;;;;;20.58;16.23;;;;;;;;;;5161679;27;20168;-75
2022/03/05 03:51:30;;;;;;;19.48;16.12;;;;;;;;;;5161786;27;20084;-80
2022/03/05 03:53:56;;;;;;;22.27;16.20;;;;;;;;;;5180382;27;20074;-75
2022/03/05 03:56:22;;;;;;;22.60;16.55;;;;;;;;;;5180599;27;20551;-74
2022/03/05 03:58:48;;;;;;;21.67;16.27;;;;;;;;;;5179611;27;20105;-70
2022/03/05 04:01:14;;;;;;;22.55;16.55;;;;;;;;;;5179337;27;20095;-72
2022/03/05 04:03:40;;;;;;;22.50;15.77;;;;;;;;;;5179456;27;20108;-69
2022/03/05 04:06:06;;;;;;;20.88;15.75;;;;;;;;;;5177127;27;20501;-71
2022/03/05 04:08:44;;;;;;;22.83;16.00;;;;;;;;;;5174846;27;20082;-70
2022/03/05 04:11:18;;;;;;;20.60;15.88;;;;;;;;;;5158021;27;20599;-70
2022/03/05 04:13:45;;;;;;;18.77;15.35;;;;;;;;;;5179285;27;20156;-71
2022/03/05 04:16:12;;;;;;;17.45;14.52;;;;;;;;;;5159119;27;20168;-74
2022/03/05 04:18:38;;;;;;;18.52;14.45;;;;;;;;;;5178180;27;20086;-70
2022/03/05 04:21:06;;;;;;;19.55;14.90;;;;;;;;;;5178270;27;20496;-70
2022/03/05 04:23:33;;;;;;;18.35;14.65;;;;;;;;;;5179224;27;20163;-68
2022/03/05 04:25:59;;;;;;;18.02;14.57;;;;;;;;;;5179202;27;20650;-69
2022/03/05 04:28:26;;;;;;;17.33;13.48;;;;;;;;;;5179240;27;20092;-69
2022/03/05 04:30:52;;;;;;;17.87;14.60;;;;;;;;;;5159912;27;20526;-70
2022/03/05 04:33:18;;;;;;;16.23;14.13;;;;;;;;;;5179178;27;20086;-70
2022/03/05 04:35:44;;;;;;;17.65;14.70;;;;;;;;;;5160064;27;20169;-70
2022/03/05 04:38:10;;;;;;;17.17;14.05;;;;;;;;;;5179209;27;20093;-70
2022/03/05 04:40:36;;;;;;;16.23;13.27;;;;;;;;;;5179313;27;20162;-70
2022/03/05 04:43:03;;;;;;;17.55;13.85;;;;;;;;;;5160114;27;20432;-70
2022/03/05 04:45:29;;;;;;;15.10;13.00;;;;;;;;;;5160503;27;20595;-70
2022/03/05 04:47:55;;;;;;;15.95;12.55;;;;;;;;;;5179225;27;20070;-70
2022/03/05 04:50:21;;;;;;;15.70;12.35;;;;;;;;;;5179192;27;20096;-71
2022/03/05 04:52:48;;;;;;;16.77;13.05;;;;;;;;;;5179281;27;20089;-71
2022/03/05 04:55:14;;;;;;;17.92;12.82;;;;;;;;;;5179588;27;20173;-70
2022/03/05 04:57:40;;;;;;;17.60;13.05;;;;;;;;;;5161429;27;20290;-71
2022/03/05 05:00:08;;;;;;;14.45;12.15;;;;;;;;;;5180699;27;20096;-71
2022/03/05 05:02:34;;;;;;;15.60;12.77;;;;;;;;;;5180612;27;20074;-71
2022/03/05 05:05:00;;;;;;;16.92;13.68;;;;;;;;;;5161403;27;20094;-71
2022/03/05 05:07:26;;;;;;;15.90;12.32;;;;;;;;;;5161830;27;20094;-71
2022/03/05 05:09:53;;;;;;;15.40;13.70;;;;;;;;;;5180512;27;20101;-71
2022/03/05 05:12:19;;;;;;;16.83;13.30;;;;;;;;;;5161286;27;20074;-70
2022/03/05 05:14:45;;;;;;;14.35;12.02;;;;;;;;;;5180432;27;20086;-69
2022/03/05 05:17:11;;;;;;;15.02;12.73;;;;;;;;;;5180699;27;20071;-70
2022/03/05 05:19:37;;;;;;;14.70;11.73;;;;;;;;;;5180152;27;20160;-70
2022/03/05 05:22:04;;;;;;;17.80;13.18;;;;;;;;;;5180390;27;20427;-70
2022/03/05 05:24:33;;;;;;;19.85;13.98;;;;;;;;;;5161318;27;20066;-70
2022/03/05 05:27:00;;;;;;;16.95;14.00;;;;;;;;;;5161254;27;20082;-70
2022/03/05 05:29:26;;;;;;;15.82;14.00;;;;;;;;;;5180299;27;20090;-70
2022/03/05 05:31:52;;;;;;;15.68;12.25;;;;;;;;;;5180345;27;20152;-70
2022/03/05 05:34:18;;;;;;;15.00;12.88;;;;;;;;;;5180192;27;20097;-70
2022/03/05 05:36:44;;;;;;;16.77;13.30;;;;;;;;;;5180382;27;20109;-67
2022/03/05 05:39:12;;;;;;;17.58;13.02;;;;;;;;;;5180186;27;20516;-67
2022/03/05 05:41:39;;;;;;;17.55;12.85;;;;;;;;;;5180342;27;20081;-67
2022/03/05 05:44:07;;;;;;;15.45;12.27;;;;;;;;;;5180107;27;20078;-66
2022/03/05 05:46:33;;;;;;;17.10;13.35;;;;;;;;;;5161156;27;20092;-67
2022/03/05 05:48:59;;;;;;;14.00;10.73;;;;;;;;;;5180239;27;20078;-68
2022/03/05 05:51:27;;;;;;;14.30;11.02;;;;;;;;;;5180028;27;20181;-67
2022/03/05 05:53:53;;;;;;;17.60;12.82;;;;;;;;;;5161115;27;20549;-67
2022/03/05 05:56:20;;;;;;;17.83;13.60;;;;;;;;;;5143572;27;20081;-67
2022/03/05 05:58:48;;;;;;;18.37;13.75;;;;;;;;;;5180108;27;20187;-66
2022/03/05 06:01:14;;;;;;;15.68;13.75;;;;;;;;;;5180277;27;20384;-65
2022/03/05 06:03:41;;;;;;;19.77;13.68;;;;;;;;;;5180205;27;20518;-65
2022/03/05 06:06:07;;;;;;;18.67;15.25;;;;;;;;;;5180062;27;20442;-67
2022/03/05 06:08:33;;;;;;;17.25;14.50;;;;;;;;;;5180291;27;20085;-67
2022/03/05 06:10:59;;;;;;;18.70;14.30;;;;;;;;;;5180025;27;20066;-67
2022/03/05 06:13:25;;;;;;;17.23;13.60;;;;;;;;;;5180073;27;20470;-66
2022/03/05 06:15:51;;;;;;;17.70;14.43;;;;;;;;;;5179904;27;20085;-66
2022/03/05 06:18:18;;;;;;;18.17;13.27;;;;;;;;;;5180145;27;20081;-67
2022/03/05 06:20:44;;;;;;;17.73;14.73;;;;;;;;;;5179785;27;20088;-67
2022/03/05 06:23:10;;;;;;;17.75;14.40;;;;;;;;;;5179992;27;20080;-68
2022/03/05 06:25:36;;;;;;;16.70;14.18;;;;;;;;;;5179949;27;20151;-68
2022/03/05 06:28:02;;;;;;;17.25;14.80;;;;;;;;;;5180212;27;20428;-68
2022/03/05 06:30:28;;;;;;;18.05;15.07;;;;;;;;;;5180094;27;20081;-67
2022/03/05 06:32:54;;;;;;;19.85;14.02;;;;;;;;;;5179863;27;20086;-67
2022/03/05 06:35:20;;;;;;;19.15;14.95;;;;;;;;;;5179800;27;20520;-68
2022/03/05 06:37:46;;;;;;;18.08;14.98;;;;;;;;;;5179926;27;20192;-68
2022/03/05 06:40:12;;;;;;;18.23;14.90;;;;;;;;;;5179698;27;20176;-68
2022/03/05 06:42:40;;;;;;;24.77;13.60;;;;;;;;;;5179765;27;20180;-67
2022/03/05 06:45:08;;;;;;;14.52;13.02;;;;;;;;;;5179692;27;20129;-68
2022/03/05 06:47:37;;;;;;;18.95;13.70;;;;;;;;;;5180074;27;20062;-68
2022/03/05 06:50:08;;;;;;;19.67;13.30;;;;;;;;;;5179670;27;20417;-67
2022/03/05 06:52:34;;;;;;;17.42;13.55;;;;;;;;;;5179778;27;20411;-67
2022/03/05 06:55:00;;;;;;;16.23;11.98;;;;;;;;;;5179664;27;20485;-66
2022/03/05 06:57:28;;;;;;;17.02;12.05;;;;;;;;;;5160574;27;20085;-67
2022/03/05 06:59:54;;;;;;;15.90;12.95;;;;;;;;;;5179571;27;20087;-68
2022/03/05 07:02:21;;;;;;;14.18;11.85;;;;;;;;;;5179642;27;20074;-68
2022/03/05 07:04:47;;;;;;;15.13;10.48;;;;;;;;;;5160585;27;20077;-69
2022/03/05 07:07:13;;;;;;;13.18;10.63;;;;;;;;;;5160587;27;20065;-68
2022/03/05 07:09:39;;;;;;;11.85;10.02;;;;;;;;;;5179458;27;20066;-68
2022/03/05 07:12:06;;;;;;;13.10;11.18;;;;;;;;;;5179889;27;20169;-69
2022/03/05 07:14:32;;;;;;;18.80;11.63;;;;;;;;;;5179553;27;20120;-70
2022/03/05 07:16:58;;;;;;;14.05;10.23;;;;;;;;;;5179423;27;20150;-71
2022/03/05 07:19:24;;;;;;;13.88;10.57;;;;;;;;;;5160189;27;20304;-70
2022/03/05 07:21:50;;;;;;;13.00;9.43;;;;;;;;;;5179633;27;20101;-69
2022/03/05 07:24:17;;;;;;;13.98;10.90;;;;;;;;;;5179330;27;20421;-70
2022/03/05 07:26:43;;;;;;;12.73;10.55;;;;;;;;;;5179445;27;20076;-68
2022/03/05 07:29:09;;;;;;;11.12;8.43;;;;;;;;;;5179320;27;20481;-66
2022/03/05 07:31:35;;;;;;;12.35;9.45;;;;;;;;;;5179349;27;20069;-65
2022/03/05 07:34:01;;;;;;;15.13;11.18;;;;;;;;;;5179368;27;20496;-64
2022/03/05 07:36:27;;;;;;;11.80;9.98;;;;;;;;;;5179606;27;20073;-66
2022/03/05 07:38:53;;;;;;;13.13;9.27;;;;;;;;;;5179378;27;20125;-66
2022/03/05 07:41:19;;;;;;;12.77;9.25;;;;;;;;;;5179808;27;20487;-64
2022/03/05 07:43:45;;;;;;;11.65;9.05;;;;;;;;;;5179467;27;20147;-66
2022/03/05 07:46:11;;;;;;;10.48;8.32;;;;;;;;;;5179495;27;20068;-66
2022/03/05 07:48:37;;;;;;;9.10;7.22;;;;;;;;;;5178783;27;20093;-66
2022/03/05 07:51:03;;;;;;;11.77;8.60;;;;;;;;;;5179371;27;20072;-67
2022/03/05 07:53:33;;;;;;;12.98;9.02;;;;;;;;;;5179311;27;20085;-66
2022/03/05 07:56:00;;;;;;;11.35;8.68;;;;;;;;;;5171030;27;20449;-66
2022/03/05 07:58:26;;;;;;;11.48;8.77;;;;;;;;;;5179178;27;20190;-73
2022/03/05 08:00:52;;;;;;;15.38;9.13;;;;;;;;;;5179182;27;20122;-73
2022/03/05 08:03:18;;;;;;;11.45;7.85;;;;;;;;;;5159946;27;20175;-71
2022/03/05 08:05:45;;;;;;;10.93;7.82;;;;;;;;;;5177492;27;20172;-69
2022/03/05 08:08:12;;;;;;;13.62;9.73;;;;;;;;;;5174866;27;20785;-70
2022/03/05 08:10:38;;;;;;;10.25;8.38;;;;;;;;;;5174664;27;20105;-69
2022/03/05 08:13:04;;;;;;;13.55;8.60;;;;;;;;;;5174691;27;20195;-70
2022/03/05 08:15:30;;;;;;;13.65;10.02;;;;;;;;;;5175182;27;20955;-73
2022/03/05 08:17:58;;;;;;;12.25;10.40;;;;;;;;;;5174737;27;20093;-72
2022/03/05 08:20:27;;;;;;;15.85;11.32;;;;;;;;;;5174614;27;20512;-71
2022/03/05 08:22:53;;;;;;;14.18;11.70;;;;;;;;;;5174857;27;20089;-70
2022/03/05 08:25:20;;;;;;;13.30;11.48;;;;;;;;;;5174396;27;20511;-69
2022/03/05 08:27:47;;;;;;;13.85;11.80;;;;;;;;;;5174640;27;20110;-67
2022/03/05 08:30:14;;;;;;;15.35;12.32;;;;;;;;;;5174981;27;20517;-69
2022/03/05 08:32:40;;;;;;;15.85;11.23;;;;;;;;;;5176856;27;20085;-70
2022/03/05 08:35:07;;;;;;;14.70;11.73;;;;;;;;;;5177263;27;20105;-73
2022/03/05 08:37:34;;;;;;;16.95;12.37;;;;;;;;;;5176414;27;20209;-75
2022/03/05 08:40:00;;;;;;;14.63;12.60;;;;;;;;;;5158142;27;20100;-74
2022/03/05 08:42:26;;;;;;;15.98;12.80;;;;;;;;;;5156979;27;20097;-75
2022/03/05 08:44:52;;;;;;;16.35;12.80;;;;;;;;;;5175508;27;20445;-72
2022/03/05 08:47:18;;;;;;;15.43;12.43;;;;;;;;;;5156845;27;20082;-69
2022/03/05 08:49:44;;;;;;;21.05;13.57;;;;;;;;;;5175911;27;20102;-68
2022/03/05 08:52:10;;;;;;;19.55;14.18;;;;;;;;;;5179550;27;20177;-67
2022/03/05 08:54:36;;;;;;;15.95;13.48;;;;;;;;;;5180516;27;20104;-67
2022/03/05 08:57:03;;;;;;;16.30;13.40;;;;;;;;;;5180436;27;20105;-67
2022/03/05 08:59:29;;;;;;;17.42;13.62;;;;;;;;;;5180193;27;20510;-68
2022/03/05 09:01:56;;;;;;;18.33;13.85;;;;;;;;;;5161915;27;20083;-68
2022/03/05 09:04:22;;;;;;;17.65;13.70;;;;;;;;;;5180395;27;20094;-68
2022/03/05 09:06:48;;;;;;;17.45;13.60;;;;;;;;;;5180843;27;20098;-67
2022/03/05 09:09:14;;;;;;;16.12;14.45;;;;;;;;;;5180289;27;20195;-69
2022/03/05 09:11:40;;;;;;;17.25;12.88;;;;;;;;;;5161509;27;20113;-68
2022/03/05 09:14:07;;;;;;;16.48;13.43;;;;;;;;;;5161539;27;20184;-68
2022/03/05 09:16:36;;;;;;;15.93;12.77;;;;;;;;;;5180404;27;20073;-68
2022/03/05 09:19:02;;;;;;;17.33;12.75;;;;;;;;;;5161227;27;20081;-68
2022/03/05 09:21:28;;;;;;;16.42;13.88;;;;;;;;;;5180342;27;20085;-68
2022/03/05 09:23:54;;;;;;;16.35;12.55;;;;;;;;;;5180309;27;20065;-68
2022/03/05 09:26:20;;;;;;;16.20;12.63;;;;;;;;;;5180272;27;20472;-68
2022/03/05 09:28:47;;;;;;;17.83;13.05;;;;;;;;;;5180232;27;20082;-68
2022/03/05 09:31:13;;;;;;;17.62;13.55;;;;;;;;;;5180497;27;20093;-68
2022/03/05 09:33:39;;;;;;;16.48;12.93;;;;;;;;;;5179993;27;20153;-68
2022/03/05 09:36:05;;;;;;;15.77;13.35;;;;;;;;;;5180441;27;20127;-67
2022/03/05 09:38:32;;;;;;;17.37;13.98;;;;;;;;;;5180276;27;20117;-69
2022/03/05 09:41:02;;;;;;;17.23;13.75;;;;;;;;;;5180107;27;20109;-66
2022/03/05 09:43:28;;;;;;;14.73;13.30;;;;;;;;;;5180605;27;20481;-68
2022/03/05 09:45:54;;;;;;;15.70;13.57;;;;;;;;;;5180427;27;20512;-69
2022/03/05 09:48:21;;;;;;;16.75;12.13;;;;;;;;;;5161417;27;20174;-70
2022/03/05 09:50:47;;;;;;;14.95;13.35;;;;;;;;;;5180064;27;20112;-72
2022/03/05 09:53:13;;;;;;;15.02;13.18;;;;;;;;;;5180425;27;20497;-72
2022/03/05 09:55:39;;;;;;;15.13;13.23;;;;;;;;;;5180606;27;20119;-70
2022/03/05 09:58:06;;;;;;;18.33;12.57;;;;;;;;;;5180583;27;20462;-70
2022/03/05 10:00:32;;;;;;;13.38;11.80;;;;;;;;;;5180449;27;20583;-70
2022/03/05 10:02:59;;;;;;;18.20;16.20;;;;;;;;;;5161227;27;20110;-71
2022/03/05 10:05:27;;;;;;;15.93;11.98;;;;;;;;;;5180276;27;20117;-72
2022/03/05 10:08:13;;;;;;;16.35;12.90;;;;;;;;;;5179304;27;20062;-72
2022/03/05 10:10:50;;;;;;;14.90;13.40;;;;;;;;;;5179190;27;20113;-70
2022/03/05 10:13:31;;;;;;;15.85;12.65;;;;;;;;;;5176480;27;20097;-71
2022/03/05 10:16:03;;;;;;;14.13;12.63;;;;;;;;;;5170378;27;20451;-70
2022/03/05 10:19:22;;;;;;;14.77;12.18;;;;;;;;;;5179607;27;20189;-71
2022/03/05 10:21:59;;;;;;;16.98;11.52;;;;;;;;;;5177507;27;20532;-76
2022/03/05 10:24:38;;;;;;;13.60;11.23;;;;;;;;;;5179415;27;20178;-74
2022/03/05 10:27:07;;;;;;;12.35;10.55;;;;;;;;;;5179627;27;20183;-72
2022/03/05 10:29:36;;;;;;;14.02;11.60;;;;;;;;;;5179421;27;20490;-75
2022/03/05 10:32:10;;;;;;;14.23;12.00;;;;;;;;;;5179882;27;20478;-75
2022/03/05 10:34:42;;;;;;;12.75;10.95;;;;;;;;;;5180248;27;20122;-75
2022/03/05 10:37:08;;;;;;;13.50;12.10;;;;;;;;;;5179703;27;20113;-78
2022/03/05 10:39:35;;;;;;;13.62;11.43;;;;;;;;;;5160688;27;20531;-74
2022/03/05 10:42:02;;;;;;;12.35;10.32;;;;;;;;;;5179521;27;20082;-70
2022/03/05 10:44:29;;;;;;;14.15;11.32;;;;;;;;;;5160579;27;20182;-70
2022/03/05 10:47:02;;;;;;;13.38;10.77;;;;;;;;;;5179880;27;20076;-76
2022/03/05 10:49:33;;;;;;;13.15;11.20;;;;;;;;;;5178988;27;20109;-68
2022/03/05 10:52:02;;;;;;;11.88;10.48;;;;;;;;;;5161409;27;20153;-71
2022/03/05 10:54:29;;;;;;;15.07;10.23;;;;;;;;;;5179869;27;20505;-69
2022/03/05 10:57:21;;;;;;;11.52;10.23;;;;;;;;;;5180099;27;20101;-72
2022/03/05 10:59:49;;;;;;;10.68;8.80;;;;;;;;;;5179974;27;20104;-72
2022/03/05 11:02:18;;;;;;;11.50;9.50;;;;;;;;;;5179857;27;20475;-74
2022/03/05 11:04:45;;;;;;;10.68;9.57;;;;;;;;;;5179979;27;20089;-74
2022/03/05 11:07:18;;;;;;;10.13;8.68;;;;;;;;;;5160700;27;20086;-74
2022/03/05 11:09:45;;;;;;;10.57;9.52;;;;;;;;;;5161155;27;20086;-73
2022/03/05 11:12:18;;;;;;;10.95;8.50;;;;;;;;;;5179678;27;20546;-71
2022/03/05 11:14:49;;;;;;;11.20;10.00;;;;;;;;;;5179717;27;20081;-69
2022/03/05 11:17:16;;;;;;;13.45;9.75;;;;;;;;;;5179492;27;20066;-70
2022/03/05 11:19:43;;;;;;;12.27;10.27;;;;;;;;;;5179675;27;20579;-68
2022/03/05 11:22:11;;;;;;;11.77;9.75;;;;;;;;;;5179440;27;20635;-67
2022/03/05 11:24:42;;;;;;;10.95;9.52;;;;;;;;;;5179399;27;20076;-71
2022/03/05 11:27:12;;;;;;;14.25;8.93;;;;;;;;;;5179514;27;20116;-70
2022/03/05 11:30:05;;;;;;;18.87;10.35;;;;;;;;;;5160341;27;20604;-70
2022/03/05 11:32:34;;;;;;;11.07;9.40;;;;;;;;;;5179870;27;20097;-71
2022/03/05 11:35:23;;;;;;;10.73;8.95;;;;;;;;;;5152521;27;20086;-71
2022/03/05 11:37:50;;;;;;;12.35;9.65;;;;;;;;;;5166197;27;20120;-72
2022/03/05 11:40:38;;;;;;;12.88;9.70;;;;;;;;;;5181055;27;20089;-71
2022/03/05 11:43:22;;;;;;;12.27;10.25;;;;;;;;;;5160796;27;20079;-70
2022/03/05 11:45:58;;;;;;;15.77;11.68;;;;;;;;;;5179858;27;20145;-69
2022/03/05 11:48:43;;;;;;;14.63;10.80;;;;;;;;;;5158857;27;20073;-70
2022/03/05 11:51:53;;;;;;;13.60;12.20;;;;;;;;;;5165205;27;20085;-70
2022/03/05 11:55:14;;;;;;;13.15;11.30;;;;;;;;;;5165341;27;20192;-69
2022/03/05 11:58:26;;;;;;;14.70;13.25;;;;;;;;;;5179467;27;20116;-71
2022/03/05 12:01:41;;;;;;;15.25;13.62;;;;;;;;;;5179263;27;20084;-72
2022/03/05 12:04:46;;;;;;;14.32;12.73;;;;;;;;;;5166129;27;20172;-68
2022/03/05 12:07:53;;;;;;;15.20;12.68;;;;;;;;;;5165616;27;20097;-68
2022/03/05 12:11:20;;;;;;;16.52;14.77;;;;;;;;;;5179663;27;20188;-66
2022/03/05 12:14:23;;;;;;;15.63;14.10;;;;;;;;;;5178585;27;20081;-65
2022/03/05 12:17:33;;;;;;;18.70;16.48;;;;;;;;;;5178962;27;20184;-65
2022/03/05 12:20:38;;;;;;;17.30;15.50;;;;;;;;;;5179145;27;20500;-66
2022/03/05 12:23:42;;;;;;;19.98;17.87;;;;;;;;;;5166408;27;20164;-65
2022/03/05 12:26:51;;;;;;;19.45;17.48;;;;;;;;;;5179242;27;20551;-66
2022/03/05 12:29:56;;;;;;;21.80;19.55;;;;;;;;;;5166199;27;20088;-65
2022/03/05 12:33:00;;;;;;;19.23;17.20;;;;;;;;;;5179294;27;20180;-64
2022/03/05 12:36:04;;;;;;;19.75;17.95;;;;;;;;;;5165751;27;20487;-65
2022/03/05 12:39:09;;;;;;;20.00;17.80;;;;;;;;;;5178860;27;20092;-65
2022/03/05 12:42:13;;;;;;;21.30;19.20;;;;;;;;;;5179281;27;20149;-66
2022/03/05 12:45:24;;;;;;;20.10;16.87;;;;;;;;;;5179457;27;20162;-66
2022/03/05 12:47:55;;;;;;;20.73;17.40;;;;;;;;;;5179273;27;20188;-66
2022/03/05 12:50:33;;;;;;;19.62;17.60;;;;;;;;;;5178948;27;20417;-70
2022/03/05 12:53:13;;;;;;;22.62;20.25;;;;;;;;;;5159918;27;20097;-65
2022/03/05 12:55:49;;;;;;;22.08;19.87;;;;;;;;;;5179060;27;20106;-69
2022/03/05 12:58:17;;;;;;;21.27;19.17;;;;;;;;;;5179018;27;20105;-65
2022/03/05 13:00:46;;;;;;;20.80;18.60;;;;;;;;;;5159797;27;20090;-67
2022/03/05 13:03:13;;;;;;;21.27;19.08;;;;;;;;;;5178122;27;20169;-65
2022/03/05 13:05:40;;;;;;;25.88;21.70;;;;;;;;;;5155104;27;20094;-66
2022/03/05 13:08:11;;;;;;;20.70;18.45;;;;;;;;;;5176228;27;20125;-64
2022/03/05 13:10:37;;;;;;;23.05;20.37;;;;;;;;;;5175905;27;20116;-67
2022/03/05 13:13:03;;;;;;;20.52;18.40;;;;;;;;;;5157633;27;20070;-68
2022/03/05 13:15:32;;;;;;;21.73;19.27;;;;;;;;;;5178862;27;20114;-71
2022/03/05 13:18:09;;;;;;;21.37;19.23;;;;;;;;;;5180337;27;20489;-67
2022/03/05 13:20:36;;;;;;;21.25;19.25;;;;;;;;;;5180267;27;20469;-71
2022/03/05 13:23:03;;;;;;;21.33;19.05;;;;;;;;;;5180197;27;20173;-70
2022/03/05 13:25:30;;;;;;;20.48;18.50;;;;;;;;;;5180153;27;20337;-71
2022/03/05 13:27:59;;;;;;;21.75;19.48;;;;;;;;;;5160912;27;20062;-69
2022/03/05 13:30:27;;;;;;;21.55;19.25;;;;;;;;;;5161250;27;20085;-70
2022/03/05 13:32:53;;;;;;;21.87;19.42;;;;;;;;;;5179829;27;20068;-70
2022/03/05 13:35:19;;;;;;;22.17;18.87;;;;;;;;;;5161297;27;20075;-70
2022/03/05 13:37:46;;;;;;;21.23;17.73;;;;;;;;;;5179987;27;20429;-70
2022/03/05 13:40:16;;;;;;;19.83;17.85;;;;;;;;;;5179689;27;20089;-69
2022/03/05 13:42:46;;;;;;;19.92;17.83;;;;;;;;;;5160697;27;20109;-70
2022/03/05 13:45:14;;;;;;;20.65;18.62;;;;;;;;;;5161877;27;20082;-71
2022/03/05 13:47:45;;;;;;;20.70;18.50;;;;;;;;;;5179474;27;20560;-70
2022/03/05 13:50:12;;;;;;;20.00;17.92;;;;;;;;;;5180194;27;20557;-72
2022/03/05 13:52:39;;;;;;;19.83;17.70;;;;;;;;;;5160307;27;20082;-71
2022/03/05 13:55:10;;;;;;;19.98;17.67;;;;;;;;;;5157920;27;20086;-72
2022/03/05 13:57:39;;;;;;;22.58;19.75;;;;;;;;;;5160713;27;20075;-70
2022/03/05 14:00:10;;;;;;;30.20;21.50;;;;;;;;;;5180428;27;20172;-71
2022/03/05 14:02:36;;;;;;;22.15;19.75;;;;;;;;;;5179902;27;20150;-73
2022/03/05 14:05:07;;;;;;;22.45;20.05;;;;;;;;;;5179638;27;20069;-72
2022/03/05 14:07:49;;;;;;;20.52;18.30;;;;;;;;;;5160758;27;20070;-70
2022/03/05 14:10:17;;;;;;;21.98;17.55;;;;;;;;;;5180300;27;20078;-71
2022/03/05 14:12:51;;;;;;;20.40;18.15;;;;;;;;;;5160725;27;20167;-71
2022/03/05 14:15:17;;;;;;;23.27;20.98;;;;;;;;;;5180026;27;20085;-67
2022/03/05 14:17:49;;;;;;;22.35;20.15;;;;;;;;;;5179534;27;20085;-72
2022/03/05 14:20:21;;;;;;;22.58;20.27;;;;;;;;;;5160923;27;20089;-71
2022/03/05 14:22:51;;;;;;;22.23;18.83;;;;;;;;;;5161022;27;20549;-68
2022/03/05 14:25:26;;;;;;;21.98;19.73;;;;;;;;;;5179582;27;20090;-68
2022/03/05 14:27:54;;;;;;;20.95;18.87;;;;;;;;;;5179228;27;20069;-69
2022/03/05 14:30:21;;;;;;;19.87;17.77;;;;;;;;;;5179549;27;20110;-68
2022/03/05 14:32:47;;;;;;;24.02;21.52;;;;;;;;;;5179450;27;20116;-69
2022/03/05 14:35:14;;;;;;;18.35;16.48;;;;;;;;;;5160202;27;20097;-68
2022/03/05 14:37:44;;;;;;;16.98;15.10;;;;;;;;;;5178812;27;20089;-68
2022/03/05 14:40:13;;;;;;;18.15;16.17;;;;;;;;;;5179543;27;20177;-68
2022/03/05 14:42:39;;;;;;;16.65;15.15;;;;;;;;;;5160128;27;20072;-68
2022/03/05 14:45:07;;;;;;;17.83;15.20;;;;;;;;;;5179710;27;20405;-68
2022/03/05 14:47:33;;;;;;;16.40;13.95;;;;;;;;;;5179584;27;20085;-69
2022/03/05 14:49:59;;;;;;;16.05;14.38;;;;;;;;;;5179560;27;20092;-69
2022/03/05 14:52:26;;;;;;;15.65;14.05;;;;;;;;;;5179654;27;20068;-69
2022/03/05 14:54:52;;;;;;;15.80;14.15;;;;;;;;;;5179190;27;20073;-69